Time;durP1;ratioP1;P1;durP2;ratioP2;P2;SDS_P1;SDS_P2;PMS_P1;PMS_P2;Temp;Humidity;BMP_temperature;BMP_pressure;BME280_temperature;BME280_humidity;BME280_pressure;Samples;Min_cycle;Max_cycle;Signal;HPM_P1;HPM_P2
2023/10/19 00:00:22;;;;;;;9.43;9.02;;;;;;;;;;5070831;28;20036;-64
2023/10/19 00:02:54;;;;;;;10.05;9.55;;;;;;;;;;5058219;28;20033;-63
2023/10/19 00:05:20;;;;;;;9.20;8.80;;;;;;;;;;5058748;28;20066;-63
2023/10/19 00:07:46;;;;;;;9.45;9.05;;;;;;;;;;5057958;28;20112;-63
2023/10/19 00:10:15;;;;;;;9.35;8.95;;;;;;;;;;5063385;28;20025;-63
2023/10/19 00:12:40;;;;;;;10.13;9.63;;;;;;;;;;5063098;28;20506;-63
2023/10/19 00:15:06;;;;;;;10.00;9.50;;;;;;;;;;5067426;28;20171;-63
2023/10/19 00:17:32;;;;;;;9.80;9.30;;;;;;;;;;5059141;28;20024;-62
2023/10/19 00:20:35;;;;;;;9.30;8.90;;;;;;;;;;5060652;28;20023;-64
2023/10/19 00:22:44;;;;;;;9.77;9.27;;;;;;;;;;5061501;28;20097;-62
2023/10/19 00:25:13;;;;;;;10.55;10.05;;;;;;;;;;5062739;28;20087;-64
2023/10/19 00:27:39;;;;;;;9.82;9.32;;;;;;;;;;5061365;28;20024;-63
2023/10/19 00:30:08;;;;;;;9.77;9.27;;;;;;;;;;5057851;28;20021;-64
2023/10/19 00:32:38;;;;;;;9.95;9.45;;;;;;;;;;5071098;28;20465;-62
2023/10/19 00:35:09;;;;;;;9.85;9.35;;;;;;;;;;5066940;28;20036;-64
2023/10/19 00:37:42;;;;;;;9.90;9.40;;;;;;;;;;5066832;28;20024;-64
2023/10/19 00:40:15;;;;;;;9.32;8.93;;;;;;;;;;5067088;28;20028;-64
2023/10/19 00:42:46;;;;;;;9.00;8.60;;;;;;;;;;5060920;28;20062;-64
2023/10/19 00:45:13;;;;;;;9.80;9.30;;;;;;;;;;5060488;28;20470;-64
2023/10/19 00:47:42;;;;;;;10.10;9.60;;;;;;;;;;5070560;28;20124;-63
2023/10/19 00:50:15;;;;;;;9.23;8.82;;;;;;;;;;5059335;28;20555;-64
2023/10/19 00:52:45;;;;;;;9.70;9.30;;;;;;;;;;5063890;28;20410;-64
2023/10/19 00:55:12;;;;;;;9.30;8.90;;;;;;;;;;5056008;28;20033;-63
2023/10/19 00:57:41;;;;;;;9.75;9.25;;;;;;;;;;5060888;28;20029;-64
2023/10/19 01:00:11;;;;;;;9.85;9.35;;;;;;;;;;5066181;28;20078;-64
2023/10/19 01:02:44;;;;;;;9.48;9.07;;;;;;;;;;5067501;28;20032;-63
2023/10/19 01:05:13;;;;;;;9.27;8.88;;;;;;;;;;5059021;28;20012;-63
2023/10/19 01:07:39;;;;;;;10.15;9.65;;;;;;;;;;5058579;28;20051;-63
2023/10/19 01:12:50;;;;;;;9.20;8.80;;;;;;;;;;5059909;28;20048;-64
2023/10/19 01:15:17;;;;;;;9.88;9.38;;;;;;;;;;5062686;28;20493;-63
2023/10/19 01:17:52;;;;;;;9.55;9.15;;;;;;;;;;5057830;28;20033;-63
2023/10/19 01:25:42;;;;;;;9.20;8.80;;;;;;;;;;5066672;28;20027;-63
2023/10/19 01:28:09;;;;;;;9.80;9.30;;;;;;;;;;5063984;28;20028;-62
2023/10/19 01:30:35;;;;;;;10.10;9.60;;;;;;;;;;5071784;28;20029;-62
2023/10/19 01:33:01;;;;;;;9.45;9.05;;;;;;;;;;5061575;28;20034;-63
2023/10/19 01:36:22;;;;;;;9.50;9.10;;;;;;;;;;5055489;28;20448;-63
2023/10/19 01:38:12;;;;;;;9.38;8.98;;;;;;;;;;5069194;28;20066;-63
2023/10/19 01:40:45;;;;;;;9.52;9.10;;;;;;;;;;5057219;28;20036;-63
2023/10/19 01:43:19;;;;;;;9.15;8.75;;;;;;;;;;5060013;28;20482;-63
2023/10/19 01:45:45;;;;;;;9.27;8.88;;;;;;;;;;5065916;28;20048;-63
2023/10/19 01:48:12;;;;;;;9.32;8.93;;;;;;;;;;5062099;28;20116;-62
2023/10/19 01:50:39;;;;;;;9.90;9.40;;;;;;;;;;5062109;28;20056;-63
2023/10/19 01:53:12;;;;;;;9.65;9.15;;;;;;;;;;5062226;28;20075;-63
2023/10/19 01:55:38;;;;;;;9.57;9.07;;;;;;;;;;5067990;28;20048;-63
2023/10/19 01:58:03;;;;;;;9.40;9.00;;;;;;;;;;5063672;28;21001;-63
2023/10/19 02:00:29;;;;;;;10.40;9.90;;;;;;;;;;5063294;28;20417;-63
2023/10/19 02:02:54;;;;;;;9.35;8.95;;;;;;;;;;5057845;28;20029;-63
2023/10/19 02:05:22;;;;;;;9.75;9.25;;;;;;;;;;5059639;28;20100;-63
2023/10/19 02:07:47;;;;;;;9.55;9.15;;;;;;;;;;5053316;28;20103;-63
2023/10/19 02:10:12;;;;;;;9.38;8.98;;;;;;;;;;5064653;28;20478;-64
2023/10/19 02:12:41;;;;;;;9.35;8.95;;;;;;;;;;5069532;28;20509;-63
2023/10/19 02:15:08;;;;;;;10.32;9.82;;;;;;;;;;5063595;28;20082;-63
2023/10/19 02:17:33;;;;;;;9.50;9.07;;;;;;;;;;5067619;28;20028;-63
2023/10/19 02:19:59;;;;;;;9.48;9.07;;;;;;;;;;5060225;28;20037;-64
2023/10/19 02:22:24;;;;;;;9.40;9.00;;;;;;;;;;5063308;28;20460;-63
2023/10/19 02:24:49;;;;;;;9.80;9.30;;;;;;;;;;5065908;28;20020;-64
2023/10/19 02:27:15;;;;;;;10.00;9.50;;;;;;;;;;5064321;28;20025;-64
2023/10/19 02:29:41;;;;;;;9.88;9.38;;;;;;;;;;5067969;28;20012;-62
2023/10/19 02:32:07;;;;;;;9.10;8.70;;;;;;;;;;5062354;28;20493;-63
2023/10/19 02:34:32;;;;;;;9.73;9.23;;;;;;;;;;5064603;28;20147;-63
2023/10/19 02:36:58;;;;;;;9.77;9.27;;;;;;;;;;5068508;28;20138;-62
2023/10/19 02:39:27;;;;;;;10.40;9.90;;;;;;;;;;5065965;28;20020;-62
2023/10/19 02:41:54;;;;;;;9.90;9.40;;;;;;;;;;5069596;28;20033;-63
2023/10/19 02:46:46;;;;;;;9.57;9.13;;;;;;;;;;5067723;28;20020;-63
2023/10/19 02:49:13;;;;;;;9.68;9.18;;;;;;;;;;5067700;28;20019;-63
2023/10/19 02:51:45;;;;;;;10.05;9.55;;;;;;;;;;5063187;28;20108;-64
2023/10/19 02:54:18;;;;;;;9.30;8.90;;;;;;;;;;5059802;28;20500;-64
2023/10/19 02:56:47;;;;;;;10.63;10.02;;;;;;;;;;5057461;28;20092;-64
2023/10/19 02:59:15;;;;;;;9.07;8.68;;;;;;;;;;5062806;28;20033;-62
2023/10/19 03:01:44;;;;;;;9.30;8.90;;;;;;;;;;5058521;28;20023;-62
2023/10/19 03:04:12;;;;;;;9.90;9.40;;;;;;;;;;5062564;28;20044;-63
2023/10/19 03:06:38;;;;;;;11.07;10.48;;;;;;;;;;5057719;28;20029;-64
2023/10/19 03:09:05;;;;;;;9.20;8.80;;;;;;;;;;5063482;28;20028;-64
2023/10/19 03:11:32;;;;;;;9.55;9.10;;;;;;;;;;5061974;28;20035;-64
2023/10/19 03:13:58;;;;;;;10.02;9.52;;;;;;;;;;5071126;28;20083;-63
2023/10/19 03:16:23;;;;;;;9.40;9.00;;;;;;;;;;5068821;28;20052;-63
2023/10/19 03:18:49;;;;;;;9.57;9.18;;;;;;;;;;5068931;28;20151;-63
2023/10/19 03:21:16;;;;;;;9.77;9.27;;;;;;;;;;5061196;28;20089;-63
2023/10/19 03:23:41;;;;;;;10.10;9.60;;;;;;;;;;5065752;28;20346;-63
2023/10/19 03:28:55;;;;;;;9.90;9.40;;;;;;;;;;5066544;28;20039;-64
2023/10/19 03:31:26;;;;;;;9.27;8.88;;;;;;;;;;5068825;28;20040;-63
2023/10/19 03:33:54;;;;;;;9.70;9.20;;;;;;;;;;5070873;28;20030;-64
2023/10/19 03:36:21;;;;;;;9.60;9.10;;;;;;;;;;5070092;28;20073;-64
2023/10/19 03:38:46;;;;;;;9.95;9.45;;;;;;;;;;5063319;28;20029;-63
2023/10/19 03:41:12;;;;;;;9.65;9.15;;;;;;;;;;5066743;28;20036;-64
2023/10/19 03:43:40;;;;;;;9.82;9.32;;;;;;;;;;5067040;28;20032;-63
2023/10/19 03:46:14;;;;;;;9.93;9.43;;;;;;;;;;5065901;28;20053;-64
2023/10/19 03:48:39;;;;;;;9.60;9.10;;;;;;;;;;5064361;28;20106;-64
2023/10/19 03:51:05;;;;;;;9.77;9.27;;;;;;;;;;5066246;28;20033;-65
2023/10/19 03:53:31;;;;;;;9.30;8.90;;;;;;;;;;5067553;28;20066;-64
2023/10/19 03:55:57;;;;;;;9.30;8.90;;;;;;;;;;5071415;28;20078;-63
2023/10/19 03:58:22;;;;;;;9.45;9.05;;;;;;;;;;5062566;28;20423;-63
2023/10/19 04:00:49;;;;;;;9.98;9.48;;;;;;;;;;5061038;28;20067;-64
2023/10/19 04:03:15;;;;;;;9.88;9.38;;;;;;;;;;5059899;28;20028;-64
2023/10/19 04:05:41;;;;;;;9.15;8.75;;;;;;;;;;5061033;28;20492;-64
2023/10/19 04:08:20;;;;;;;9.30;8.90;;;;;;;;;;5063390;28;20025;-63
2023/10/19 04:11:08;;;;;;;9.43;9.02;;;;;;;;;;5053942;28;20462;-65
2023/10/19 04:13:34;;;;;;;9.02;8.63;;;;;;;;;;5061132;28;20048;-65
2023/10/19 04:15:59;;;;;;;9.30;8.90;;;;;;;;;;5066159;28;20419;-64
2023/10/19 04:18:25;;;;;;;9.10;8.70;;;;;;;;;;5068426;28;20046;-64
2023/10/19 04:23:16;;;;;;;10.30;9.80;;;;;;;;;;5058003;28;20485;-65
2023/10/19 04:25:41;;;;;;;9.55;9.07;;;;;;;;;;5060803;28;20028;-63
2023/10/19 04:28:07;;;;;;;10.68;10.07;;;;;;;;;;5063148;28;20020;-63
2023/10/19 04:30:33;;;;;;;10.68;10.07;;;;;;;;;;5056469;28;20116;-63
2023/10/19 04:32:59;;;;;;;9.80;9.30;;;;;;;;;;5061107;28;20113;-64
2023/10/19 04:35:26;;;;;;;10.25;9.75;;;;;;;;;;5056847;28;20067;-64
2023/10/19 04:37:52;;;;;;;11.25;10.65;;;;;;;;;;5060689;28;20050;-63
2023/10/19 04:40:18;;;;;;;9.65;9.15;;;;;;;;;;5061195;28;20025;-64
2023/10/19 04:42:44;;;;;;;9.95;9.45;;;;;;;;;;5060178;28;20455;-64
2023/10/19 04:45:11;;;;;;;10.25;9.75;;;;;;;;;;5056956;28;20146;-63
2023/10/19 04:47:37;;;;;;;9.63;9.13;;;;;;;;;;5072959;28;20032;-63
2023/10/19 04:50:03;;;;;;;10.60;10.00;;;;;;;;;;5062637;28;20535;-62
2023/10/19 04:52:28;;;;;;;11.18;10.57;;;;;;;;;;5064023;28;20116;-62
2023/10/19 04:54:54;;;;;;;10.15;9.65;;;;;;;;;;5062464;28;20536;-62
2023/10/19 04:57:20;;;;;;;10.10;9.60;;;;;;;;;;5059092;28;20032;-63
2023/10/19 04:59:46;;;;;;;10.15;9.65;;;;;;;;;;5058377;28;20495;-63
2023/10/19 05:02:11;;;;;;;10.73;10.13;;;;;;;;;;5058126;28;20112;-62
2023/10/19 05:04:36;;;;;;;9.85;9.35;;;;;;;;;;5059460;28;20032;-63
2023/10/19 05:07:03;;;;;;;10.57;9.98;;;;;;;;;;5056485;28;20020;-62
2023/10/19 05:09:29;;;;;;;11.23;10.63;;;;;;;;;;5052904;28;20088;-64
2023/10/19 05:11:55;;;;;;;9.73;9.23;;;;;;;;;;5058299;28;20074;-64
2023/10/19 05:14:20;;;;;;;10.63;10.02;;;;;;;;;;5050488;28;20413;-62
2023/10/19 05:16:45;;;;;;;10.73;10.13;;;;;;;;;;5054509;28;20067;-63
2023/10/19 05:19:11;;;;;;;10.38;9.88;;;;;;;;;;5053804;28;20025;-64
2023/10/19 05:21:36;;;;;;;9.68;9.18;;;;;;;;;;5060902;28;20032;-64
2023/10/19 05:24:01;;;;;;;10.88;10.27;;;;;;;;;;5058169;28;20103;-62
2023/10/19 05:26:27;;;;;;;10.85;10.25;;;;;;;;;;5056161;28;20472;-62
2023/10/19 05:28:52;;;;;;;10.13;9.63;;;;;;;;;;5058271;28;20607;-62
2023/10/19 05:31:17;;;;;;;10.27;9.77;;;;;;;;;;5058778;28;20025;-63
2023/10/19 05:33:43;;;;;;;10.35;9.85;;;;;;;;;;5065222;28;20042;-62
2023/10/19 05:36:08;;;;;;;10.15;9.65;;;;;;;;;;5064950;28;20021;-62
2023/10/19 05:38:34;;;;;;;10.38;9.88;;;;;;;;;;5060596;28;20033;-62
2023/10/19 05:40:59;;;;;;;10.88;10.27;;;;;;;;;;5057780;28;20036;-62
2023/10/19 05:43:25;;;;;;;9.60;9.10;;;;;;;;;;5060817;28;20032;-62
2023/10/19 05:45:51;;;;;;;10.32;9.82;;;;;;;;;;5055217;28;20032;-62
2023/10/19 05:48:17;;;;;;;10.00;9.50;;;;;;;;;;5053811;28;20071;-62
2023/10/19 05:50:42;;;;;;;10.02;9.52;;;;;;;;;;5060365;28;20025;-64
2023/10/19 05:53:08;;;;;;;10.73;10.13;;;;;;;;;;5063001;28;20477;-63
2023/10/19 05:55:35;;;;;;;10.65;10.05;;;;;;;;;;5063190;28;20063;-62
2023/10/19 05:58:01;;;;;;;10.98;10.38;;;;;;;;;;5061089;28;20477;-62
2023/10/19 06:00:26;;;;;;;9.85;9.35;;;;;;;;;;5058977;28;20041;-62
2023/10/19 06:02:52;;;;;;;10.98;10.38;;;;;;;;;;5056902;28;20175;-62
2023/10/19 06:05:18;;;;;;;10.45;9.93;;;;;;;;;;5061702;28;20020;-62
2023/10/19 06:07:46;;;;;;;10.07;9.57;;;;;;;;;;5056507;28;20024;-64
2023/10/19 06:10:17;;;;;;;10.52;9.93;;;;;;;;;;5057774;28;20442;-62
2023/10/19 06:12:46;;;;;;;10.15;9.65;;;;;;;;;;5064090;28;20053;-62
2023/10/19 06:15:12;;;;;;;10.90;10.30;;;;;;;;;;5055612;28;20026;-62
2023/10/19 06:17:40;;;;;;;10.43;9.93;;;;;;;;;;5062193;28;20039;-64
2023/10/19 06:20:28;;;;;;;9.98;9.48;;;;;;;;;;5059065;28;20025;-62
2023/10/19 06:22:55;;;;;;;10.10;9.60;;;;;;;;;;5062201;28;20115;-62
2023/10/19 06:25:21;;;;;;;11.32;10.73;;;;;;;;;;5052564;28;20020;-65
2023/10/19 06:27:47;;;;;;;11.43;10.82;;;;;;;;;;5058170;28;20028;-63
2023/10/19 06:30:17;;;;;;;10.40;9.90;;;;;;;;;;5062605;28;20020;-65
2023/10/19 06:32:43;;;;;;;11.05;10.45;;;;;;;;;;5056041;28;20025;-63
2023/10/19 06:35:11;;;;;;;10.55;10.02;;;;;;;;;;5061920;28;20029;-63
2023/10/19 06:37:36;;;;;;;11.57;10.98;;;;;;;;;;5052543;28;21075;-64
2023/10/19 06:40:02;;;;;;;12.40;11.70;;;;;;;;;;5055573;28;20024;-64
2023/10/19 06:42:27;;;;;;;10.38;9.88;;;;;;;;;;5055592;28;20055;-64
2023/10/19 06:44:53;;;;;;;11.27;10.68;;;;;;;;;;5058060;28;20021;-63
2023/10/19 06:47:18;;;;;;;10.80;10.25;;;;;;;;;;5051974;28;20021;-64
2023/10/19 06:49:44;;;;;;;11.27;10.68;;;;;;;;;;5056145;28;20378;-64
2023/10/19 06:52:11;;;;;;;11.18;10.57;;;;;;;;;;5059144;28;20035;-64
2023/10/19 06:54:37;;;;;;;10.23;9.73;;;;;;;;;;5060191;28;20037;-64
2023/10/19 06:57:03;;;;;;;10.60;10.10;;;;;;;;;;5062033;28;20024;-65
2023/10/19 06:59:29;;;;;;;10.70;10.20;;;;;;;;;;5059864;28;20107;-64
2023/10/19 07:01:54;;;;;;;10.70;10.20;;;;;;;;;;5058452;28;20078;-63
2023/10/19 07:04:20;;;;;;;11.57;10.98;;;;;;;;;;5064054;28;20036;-64
2023/10/19 07:06:47;;;;;;;11.32;10.73;;;;;;;;;;5055049;28;20671;-65
2023/10/19 07:09:13;;;;;;;11.07;10.57;;;;;;;;;;5054672;28;20024;-65
2023/10/19 07:11:38;;;;;;;10.75;10.25;;;;;;;;;;5055033;28;20035;-64
2023/10/19 07:14:06;;;;;;;11.02;10.52;;;;;;;;;;5061702;28;20078;-66
2023/10/19 07:16:32;;;;;;;11.57;10.98;;;;;;;;;;5055753;28;20032;-65
2023/10/19 07:18:59;;;;;;;10.90;10.40;;;;;;;;;;5058080;28;20074;-64
2023/10/19 07:21:25;;;;;;;12.43;11.82;;;;;;;;;;5058791;28;20028;-62
2023/10/19 07:23:52;;;;;;;11.27;10.77;;;;;;;;;;5057945;28;20025;-63
2023/10/19 07:26:19;;;;;;;12.35;11.75;;;;;;;;;;5054338;28;20509;-64
2023/10/19 07:28:44;;;;;;;11.50;10.98;;;;;;;;;;5063420;28;20499;-63
2023/10/19 07:31:15;;;;;;;10.70;10.20;;;;;;;;;;5062289;28;20020;-65
2023/10/19 07:33:45;;;;;;;11.32;10.82;;;;;;;;;;5060761;28;20020;-64
2023/10/19 07:36:18;;;;;;;11.68;11.18;;;;;;;;;;5058152;28;21694;-63
2023/10/19 07:38:45;;;;;;;11.98;11.38;;;;;;;;;;5056583;28;20032;-63
2023/10/19 07:41:10;;;;;;;11.45;10.95;;;;;;;;;;5061787;28;20025;-63
2023/10/19 07:43:36;;;;;;;12.02;11.43;;;;;;;;;;5060796;28;20499;-63
2023/10/19 07:46:01;;;;;;;12.15;11.55;;;;;;;;;;5056414;28;20045;-64
2023/10/19 07:48:27;;;;;;;12.18;11.57;;;;;;;;;;5065271;28;20028;-64
2023/10/19 07:50:53;;;;;;;11.18;10.68;;;;;;;;;;5069001;28;20640;-64
2023/10/19 07:53:18;;;;;;;11.57;11.07;;;;;;;;;;5058337;28;20051;-62
2023/10/19 07:55:44;;;;;;;11.50;11.00;;;;;;;;;;5055512;28;20950;-62
2023/10/19 07:58:10;;;;;;;11.55;11.05;;;;;;;;;;5056627;28;20620;-64
2023/10/19 08:00:35;;;;;;;11.30;10.80;;;;;;;;;;5064962;28;20111;-63
2023/10/19 08:03:02;;;;;;;11.82;11.32;;;;;;;;;;5056721;28;20544;-64
2023/10/19 08:05:28;;;;;;;11.80;11.30;;;;;;;;;;5055515;28;20021;-65
2023/10/19 08:07:53;;;;;;;11.48;10.98;;;;;;;;;;5053715;28;20032;-64
2023/10/19 08:10:19;;;;;;;11.90;11.40;;;;;;;;;;5058628;28;21265;-65
2023/10/19 08:12:47;;;;;;;12.93;12.32;;;;;;;;;;5051395;28;20043;-63
2023/10/19 08:15:15;;;;;;;12.13;11.63;;;;;;;;;;5056341;28;20412;-64
2023/10/19 08:17:41;;;;;;;11.80;11.30;;;;;;;;;;5060786;28;20048;-65
2023/10/19 08:20:15;;;;;;;12.00;11.50;;;;;;;;;;5054557;28;20329;-66
2023/10/19 08:22:42;;;;;;;11.75;11.25;;;;;;;;;;5061129;28;20040;-64
2023/10/19 08:25:16;;;;;;;11.73;11.23;;;;;;;;;;5061714;28;20054;-64
2023/10/19 08:27:44;;;;;;;11.70;11.20;;;;;;;;;;5057711;28;20485;-64
2023/10/19 08:30:10;;;;;;;12.10;11.60;;;;;;;;;;5055503;28;20036;-66
2023/10/19 08:32:36;;;;;;;12.30;11.80;;;;;;;;;;5053791;28;20032;-66
2023/10/19 08:35:02;;;;;;;11.98;11.48;;;;;;;;;;5060857;28;20025;-64
2023/10/19 08:37:27;;;;;;;11.90;11.40;;;;;;;;;;5058314;28;20209;-64
2023/10/19 08:39:53;;;;;;;12.00;11.50;;;;;;;;;;5062586;28;20497;-63
2023/10/19 08:42:18;;;;;;;11.82;11.32;;;;;;;;;;5054370;28;20028;-62
2023/10/19 08:44:44;;;;;;;12.18;11.68;;;;;;;;;;5063482;28;20069;-64
2023/10/19 08:47:09;;;;;;;12.57;11.98;;;;;;;;;;5057217;28;20070;-63
2023/10/19 08:49:34;;;;;;;12.00;11.50;;;;;;;;;;5057990;28;20057;-63
2023/10/19 08:52:00;;;;;;;12.02;11.52;;;;;;;;;;5057059;28;20021;-63
2023/10/19 08:54:27;;;;;;;12.23;11.73;;;;;;;;;;5059230;28;20039;-64
2023/10/19 08:56:55;;;;;;;11.63;11.13;;;;;;;;;;5066921;28;20032;-63
2023/10/19 08:59:21;;;;;;;11.68;11.18;;;;;;;;;;5063401;28;20040;-63
2023/10/19 09:01:46;;;;;;;11.85;11.35;;;;;;;;;;5059508;28;20269;-60
2023/10/19 09:04:13;;;;;;;12.20;11.70;;;;;;;;;;5052042;28;20024;-64
2023/10/19 09:06:41;;;;;;;12.07;11.57;;;;;;;;;;5057482;28;20025;-63
2023/10/19 09:09:16;;;;;;;11.85;11.35;;;;;;;;;;5054345;28;20032;-63
2023/10/19 09:11:42;;;;;;;12.00;11.50;;;;;;;;;;5052735;28;20028;-64
2023/10/19 09:14:07;;;;;;;12.05;11.55;;;;;;;;;;5057234;28;20064;-62
2023/10/19 09:16:32;;;;;;;12.20;11.70;;;;;;;;;;5057823;28;20032;-63
2023/10/19 09:18:58;;;;;;;11.95;11.45;;;;;;;;;;5053645;28;20074;-63
2023/10/19 09:21:26;;;;;;;12.05;11.55;;;;;;;;;;5058805;28;20024;-62
2023/10/19 09:23:55;;;;;;;11.90;11.40;;;;;;;;;;5057036;28;20151;-64
2023/10/19 09:26:21;;;;;;;12.80;12.20;;;;;;;;;;5055081;28;20098;-62
2023/10/19 09:28:50;;;;;;;12.30;11.73;;;;;;;;;;5051143;28;20040;-62
2023/10/19 09:31:16;;;;;;;12.60;12.00;;;;;;;;;;5053855;28;20043;-62
2023/10/19 09:33:43;;;;;;;12.82;12.23;;;;;;;;;;5055906;28;20025;-63
2023/10/19 09:36:15;;;;;;;13.13;12.52;;;;;;;;;;5053034;28;20051;-62
2023/10/19 09:38:51;;;;;;;12.65;12.05;;;;;;;;;;5063685;28;20039;-62
2023/10/19 09:41:28;;;;;;;12.95;12.35;;;;;;;;;;5052771;28;20117;-64
2023/10/19 09:43:58;;;;;;;12.40;11.80;;;;;;;;;;5056208;28;20025;-63
2023/10/19 09:46:26;;;;;;;12.18;11.57;;;;;;;;;;5062532;28;20129;-62
2023/10/19 09:48:51;;;;;;;12.68;12.07;;;;;;;;;;5054702;28;20071;-62
2023/10/19 09:51:19;;;;;;;12.45;11.85;;;;;;;;;;5053368;28;20025;-65
2023/10/19 09:53:47;;;;;;;12.32;11.73;;;;;;;;;;5052475;28;20025;-64
2023/10/19 09:56:15;;;;;;;12.10;11.50;;;;;;;;;;5056442;28;20104;-62
2023/10/19 09:58:48;;;;;;;11.65;11.13;;;;;;;;;;5060251;28;20020;-66
2023/10/19 10:01:13;;;;;;;12.93;12.32;;;;;;;;;;5053490;28;20054;-63
2023/10/19 10:03:46;;;;;;;12.43;11.82;;;;;;;;;;5058642;28;20020;-64
2023/10/19 10:06:13;;;;;;;12.02;11.43;;;;;;;;;;5055983;28;20047;-66
2023/10/19 10:08:40;;;;;;;13.23;12.63;;;;;;;;;;5058996;28;20032;-66
2023/10/19 10:11:23;;;;;;;12.00;11.40;;;;;;;;;;5057949;28;20017;-65
2023/10/19 10:13:50;;;;;;;12.63;12.02;;;;;;;;;;5060323;28;20057;-65
2023/10/19 10:16:26;;;;;;;12.65;12.05;;;;;;;;;;5054438;28;20024;-64
2023/10/19 10:18:54;;;;;;;11.95;11.38;;;;;;;;;;5057760;28;20020;-64
2023/10/19 10:21:20;;;;;;;12.60;12.00;;;;;;;;;;5056998;28;20401;-64
2023/10/19 10:23:50;;;;;;;12.98;12.38;;;;;;;;;;5056581;28;20013;-64
2023/10/19 10:26:19;;;;;;;12.30;11.70;;;;;;;;;;5051325;28;20493;-65
2023/10/19 10:29:27;;;;;;;12.05;11.45;;;;;;;;;;5055772;28;20037;-63
2023/10/19 10:31:53;;;;;;;12.57;11.98;;;;;;;;;;5052907;28;20020;-65
2023/10/19 10:34:33;;;;;;;12.27;11.68;;;;;;;;;;5062009;28;20032;-64
2023/10/19 10:37:07;;;;;;;12.05;11.45;;;;;;;;;;5064870;28;20649;-63
2023/10/19 10:39:35;;;;;;;12.55;11.95;;;;;;;;;;5065908;28;20032;-66
2023/10/19 10:42:03;;;;;;;12.85;12.25;;;;;;;;;;5055829;28;20056;-65
2023/10/19 10:44:47;;;;;;;12.18;11.57;;;;;;;;;;5066879;28;20020;-63
2023/10/19 10:47:24;;;;;;;12.40;11.80;;;;;;;;;;5052596;28;20389;-66
2023/10/19 10:49:49;;;;;;;11.82;11.27;;;;;;;;;;5062949;28;20031;-64
2023/10/19 10:52:28;;;;;;;12.15;11.55;;;;;;;;;;5064600;28;20032;-64
2023/10/19 10:54:55;;;;;;;12.45;11.85;;;;;;;;;;5057109;28;20390;-64
2023/10/19 10:57:20;;;;;;;12.77;12.18;;;;;;;;;;5057312;28;20024;-64
2023/10/19 10:59:46;;;;;;;11.20;10.70;;;;;;;;;;5059125;28;20029;-63
2023/10/19 11:02:18;;;;;;;13.65;12.95;;;;;;;;;;5055990;28;20150;-63
2023/10/19 11:04:44;;;;;;;12.27;11.68;;;;;;;;;;5059595;28;20028;-62
2023/10/19 11:07:17;;;;;;;11.57;11.07;;;;;;;;;;5061156;28;20028;-64
2023/10/19 11:09:46;;;;;;;12.23;11.63;;;;;;;;;;5066116;28;20110;-64
2023/10/19 11:12:12;;;;;;;12.20;11.60;;;;;;;;;;5056320;28;20112;-65
2023/10/19 11:14:37;;;;;;;12.68;12.07;;;;;;;;;;5059373;28;20051;-62
2023/10/19 11:17:15;;;;;;;12.20;11.60;;;;;;;;;;5054665;28;20381;-63
2023/10/19 11:19:40;;;;;;;12.40;11.80;;;;;;;;;;5060585;28;20105;-64
2023/10/19 11:22:09;;;;;;;12.80;12.20;;;;;;;;;;5063459;28;20566;-62
2023/10/19 11:24:39;;;;;;;12.27;11.68;;;;;;;;;;5063549;28;20445;-64
2023/10/19 11:27:07;;;;;;;12.50;11.90;;;;;;;;;;5061198;28;20529;-64
2023/10/19 11:29:33;;;;;;;12.13;11.52;;;;;;;;;;5054186;28;20056;-64
2023/10/19 11:31:59;;;;;;;12.52;11.93;;;;;;;;;;5059528;28;20063;-63
2023/10/19 11:34:25;;;;;;;12.45;11.85;;;;;;;;;;5062194;28;20032;-64
2023/10/19 11:36:59;;;;;;;13.18;12.57;;;;;;;;;;5057340;28;20087;-64
2023/10/19 11:39:25;;;;;;;12.43;11.82;;;;;;;;;;5058384;28;20079;-62
2023/10/19 11:41:50;;;;;;;12.55;11.95;;;;;;;;;;5056196;28;20439;-65
2023/10/19 11:44:15;;;;;;;12.23;11.63;;;;;;;;;;5061636;28;20020;-64
2023/10/19 11:46:41;;;;;;;12.73;12.13;;;;;;;;;;5059374;28;20057;-63
2023/10/19 11:49:06;;;;;;;12.27;11.68;;;;;;;;;;5062149;28;20632;-63
2023/10/19 11:51:31;;;;;;;12.45;11.85;;;;;;;;;;5060733;28;20131;-64
2023/10/19 11:53:56;;;;;;;11.75;11.25;;;;;;;;;;5062173;28;20520;-64
2023/10/19 11:56:22;;;;;;;11.93;11.43;;;;;;;;;;5060278;28;20016;-64
2023/10/19 11:58:47;;;;;;;12.38;11.77;;;;;;;;;;5064623;28;20036;-65
2023/10/19 12:01:13;;;;;;;12.43;11.82;;;;;;;;;;5056652;28;20165;-64
2023/10/19 12:03:40;;;;;;;12.63;12.02;;;;;;;;;;5053984;28;20714;-64
2023/10/19 12:06:08;;;;;;;11.75;11.25;;;;;;;;;;5062956;28;20489;-65
2023/10/19 12:08:34;;;;;;;12.35;11.75;;;;;;;;;;5052891;28;20100;-65
2023/10/19 12:11:01;;;;;;;12.32;11.73;;;;;;;;;;5058609;28;20108;-64
2023/10/19 12:13:28;;;;;;;12.27;11.68;;;;;;;;;;5065197;28;20105;-64
2023/10/19 12:15:54;;;;;;;12.73;12.13;;;;;;;;;;5061643;28;20115;-64
2023/10/19 12:18:20;;;;;;;12.18;11.57;;;;;;;;;;5057671;28;20622;-66
2023/10/19 12:20:46;;;;;;;12.35;11.75;;;;;;;;;;5059458;28;20048;-65
2023/10/19 12:23:11;;;;;;;12.23;11.63;;;;;;;;;;5054561;28;20027;-60
2023/10/19 12:25:38;;;;;;;12.40;11.80;;;;;;;;;;5058729;28;20039;-66
2023/10/19 12:28:04;;;;;;;12.77;12.18;;;;;;;;;;5056512;28;20410;-62
2023/10/19 12:30:35;;;;;;;12.77;12.18;;;;;;;;;;5067477;28;20020;-64
2023/10/19 12:33:01;;;;;;;11.95;11.45;;;;;;;;;;5058236;28;20033;-63
2023/10/19 12:35:44;;;;;;;12.32;11.73;;;;;;;;;;5060567;28;20393;-64
2023/10/19 12:38:15;;;;;;;12.82;12.23;;;;;;;;;;5061144;28;20028;-64
2023/10/19 12:40:46;;;;;;;12.00;11.48;;;;;;;;;;5050152;28;20033;-64
2023/10/19 12:43:12;;;;;;;12.10;11.55;;;;;;;;;;5057651;28;20043;-64
2023/10/19 12:45:37;;;;;;;12.40;11.80;;;;;;;;;;5051953;28;20548;-63
2023/10/19 12:48:04;;;;;;;12.50;11.90;;;;;;;;;;5056633;28;20021;-64
2023/10/19 12:50:30;;;;;;;12.30;11.70;;;;;;;;;;5059546;28;20107;-63
2023/10/19 12:52:56;;;;;;;12.05;11.52;;;;;;;;;;5057364;28;20025;-65
2023/10/19 12:55:21;;;;;;;12.20;11.63;;;;;;;;;;5061405;28;20366;-64
2023/10/19 12:57:46;;;;;;;13.10;12.50;;;;;;;;;;5058535;28;20032;-64
2023/10/19 13:00:25;;;;;;;12.00;11.50;;;;;;;;;;5059142;28;20032;-65
2023/10/19 13:02:51;;;;;;;12.73;12.13;;;;;;;;;;5057250;28;20028;-65
2023/10/19 13:05:20;;;;;;;12.85;12.25;;;;;;;;;;5057561;28;20029;-64
2023/10/19 13:07:45;;;;;;;12.00;11.50;;;;;;;;;;5057556;28;20417;-62
2023/10/19 13:10:11;;;;;;;12.13;11.52;;;;;;;;;;5055674;28;20055;-64
2023/10/19 13:12:37;;;;;;;11.90;11.40;;;;;;;;;;5061785;28;20238;-66
2023/10/19 13:15:02;;;;;;;11.90;11.40;;;;;;;;;;5059482;28;20115;-65
2023/10/19 13:17:28;;;;;;;12.93;12.32;;;;;;;;;;5059594;28;20111;-64
2023/10/19 13:19:56;;;;;;;12.38;11.77;;;;;;;;;;5055063;28;20519;-64
2023/10/19 13:22:21;;;;;;;12.45;11.85;;;;;;;;;;5053461;28;20454;-63
2023/10/19 13:24:47;;;;;;;12.52;11.93;;;;;;;;;;5056461;28;20043;-67
2023/10/19 13:27:12;;;;;;;12.70;12.10;;;;;;;;;;5058001;28;20048;-66
2023/10/19 13:29:41;;;;;;;12.07;11.57;;;;;;;;;;5052897;28;20027;-63
2023/10/19 13:32:06;;;;;;;12.02;11.52;;;;;;;;;;5055936;28;20029;-63
2023/10/19 13:34:32;;;;;;;12.50;11.90;;;;;;;;;;5059043;28;20517;-64
2023/10/19 13:36:57;;;;;;;12.90;12.30;;;;;;;;;;5054803;28;20568;-65
2023/10/19 13:39:25;;;;;;;12.60;12.00;;;;;;;;;;5060702;28;20103;-65
2023/10/19 13:41:53;;;;;;;13.15;12.55;;;;;;;;;;5055651;28;20025;-64
2023/10/19 13:44:20;;;;;;;11.88;11.38;;;;;;;;;;5059167;28;20522;-65
2023/10/19 13:46:46;;;;;;;12.32;11.73;;;;;;;;;;5053740;28;20467;-63
2023/10/19 13:49:11;;;;;;;12.98;12.38;;;;;;;;;;5053191;28;20028;-63
2023/10/19 13:51:36;;;;;;;11.98;11.48;;;;;;;;;;5059139;28;20017;-64
2023/10/19 13:54:02;;;;;;;13.05;12.45;;;;;;;;;;5055943;28;20031;-66
2023/10/19 13:56:27;;;;;;;12.38;11.77;;;;;;;;;;5060802;28;20400;-64
2023/10/19 13:58:53;;;;;;;12.02;11.48;;;;;;;;;;5058677;28;20052;-65
2023/10/19 14:01:18;;;;;;;12.63;12.02;;;;;;;;;;5056380;28;20047;-64
2023/10/19 14:03:44;;;;;;;11.80;11.30;;;;;;;;;;5052490;28;20033;-63
2023/10/19 14:06:13;;;;;;;11.68;11.18;;;;;;;;;;5054147;28;20068;-66
2023/10/19 14:08:38;;;;;;;12.38;11.77;;;;;;;;;;5058106;28;20031;-65
2023/10/19 14:11:04;;;;;;;13.25;12.65;;;;;;;;;;5056980;28;20025;-64
2023/10/19 14:13:29;;;;;;;12.85;12.25;;;;;;;;;;5059667;28;20044;-62
2023/10/19 14:15:55;;;;;;;12.60;12.00;;;;;;;;;;5059447;28;20494;-64
2023/10/19 14:18:21;;;;;;;12.70;12.10;;;;;;;;;;5064649;28;20031;-62
2023/10/19 14:20:46;;;;;;;12.52;11.93;;;;;;;;;;5060340;28;20037;-65
2023/10/19 14:23:12;;;;;;;13.45;12.85;;;;;;;;;;5058393;28;20062;-67
2023/10/19 14:25:41;;;;;;;11.82;11.30;;;;;;;;;;5064473;28;20040;-66
2023/10/19 14:28:07;;;;;;;12.55;11.95;;;;;;;;;;5062391;28;20059;-66
2023/10/19 14:30:33;;;;;;;12.63;12.02;;;;;;;;;;5055475;28;20111;-65
2023/10/19 14:32:58;;;;;;;12.88;12.27;;;;;;;;;;5058081;28;20024;-63
2023/10/19 14:35:25;;;;;;;12.50;11.90;;;;;;;;;;5066969;28;20024;-62
2023/10/19 14:37:51;;;;;;;12.43;11.82;;;;;;;;;;5058454;28;20163;-64
2023/10/19 14:40:19;;;;;;;12.30;11.70;;;;;;;;;;5060932;28;20719;-64
2023/10/19 14:42:45;;;;;;;12.48;11.88;;;;;;;;;;5059222;28;20119;-65